CW4167 Holbaek DK current weather conditions

sailwx.info

Wind from 109 at 6 knots gusting 12

Air temperature 24.4° C
Dewpoint 18.8° C

Last reported at 2020-Aug-10 18:02 UTC.
Time now 2020-Aug-10 19:03 UTC

Location: N 55°39' E 011°49'.
View on Google Maps.

See reports from other nearby stations

  
Tides and Currents Weather Stations Pressure Air Temp Water Temp Dewpoint Dewpoint Depression Visibility Wind Speed Wind Dir Waves Ship Positions
date/time (UTC)wind fromknots sea level pressurealtimeterstation pressurevisibilityair tempwater tempwave heightnotes
2020-Aug-10 18:02 109 6 gusting 12 24.4
2020-Aug-10 17:52 124 10 gusting 13 25.0
2020-Aug-10 17:42 123 8 gusting 13 25.0
2020-Aug-10 17:37 119 8 gusting 13 25.6
2020-Aug-10 17:32 116 9 gusting 14 25.6
2020-Aug-10 17:27 117 7 gusting 12 25.6
2020-Aug-10 17:22 114 8 gusting 14 26.1
2020-Aug-10 17:17 111 11 gusting 13 26.1
2020-Aug-10 17:12 114 7 gusting 13 26.1
2020-Aug-10 17:07 117 10 gusting 14 26.1
2020-Aug-10 17:02 121 7 gusting 13 26.7
2020-Aug-10 16:52 121 6 gusting 10 26.7
2020-Aug-10 16:42 115 8 gusting 13 27.2
2020-Aug-10 16:37 108 8 gusting 13 27.2
2020-Aug-10 16:32 109 5 gusting 13 27.2
2020-Aug-10 16:27 104 9 gusting 14 27.2
2020-Aug-10 16:22 110 7 gusting 14 27.2
2020-Aug-10 16:17 106 9 gusting 15 27.8
2020-Aug-10 16:12 112 6 gusting 11 27.8
2020-Aug-10 16:07 099 7 gusting 12 27.8
2020-Aug-10 16:02 122 8 gusting 13 27.8
2020-Aug-10 15:57 116 7 gusting 12 28.3
2020-Aug-10 15:52 118 7 gusting 14 28.3
2020-Aug-10 15:47 111 8 gusting 13 28.3
2020-Aug-10 15:37 104 9 gusting 14 28.3
2020-Aug-10 15:32 094 8 gusting 13 28.3
2020-Aug-10 15:22 108 6 gusting 13 28.9
2020-Aug-10 15:17 087 7 gusting 12 28.9
2020-Aug-10 15:12 108 8 gusting 13 28.9
2020-Aug-10 15:07 106 7 gusting 12 28.3
2020-Aug-10 14:47 105 11 gusting 14 28.3
2020-Aug-10 14:42 131 6 gusting 12 28.3
2020-Aug-10 14:37 114 9 gusting 14 28.3
2020-Aug-10 14:32 105 9 gusting 15 28.3
2020-Aug-10 14:22 107 6 gusting 13 28.9
2020-Aug-10 14:17 105 5 gusting 13 28.9
2020-Aug-10 14:07 122 7 gusting 14 28.9
2020-Aug-10 14:02 107 8 gusting 17 28.9
2020-Aug-10 13:57 108 7 gusting 13 28.9
2020-Aug-10 13:52 101 10 gusting 15 28.3
2020-Aug-10 13:47 100 8 gusting 14 28.3
2020-Aug-10 13:27 117 8 gusting 14 28.9
2020-Aug-10 13:22 114 10 gusting 14 28.9
2020-Aug-10 13:17 119 8 gusting 15 28.9
2020-Aug-10 13:12 106 11 gusting 17 29.4
2020-Aug-10 13:07 099 8 gusting 15 28.9
2020-Aug-10 13:02 109 10 gusting 14 28.9
2020-Aug-10 12:52 107 12 gusting 17 29.4
2020-Aug-10 12:42 112 10 gusting 17 30.0
2020-Aug-10 12:37 128 9 gusting 18 30.6
2020-Aug-10 12:17 109 7 gusting 13 30.6
2020-Aug-10 12:12 111 9 gusting 15 30.6
2020-Aug-10 11:57 106 5 gusting 12 30.6
2020-Aug-10 11:52 109 9 gusting 13 30.6
2020-Aug-10 11:47 140 7 gusting 13 30.6
2020-Aug-10 11:42 113 7 gusting 12 30.6
2020-Aug-10 11:37 105 4 gusting 11 30.6
2020-Aug-10 11:32 098 7 gusting 12 30.6
2020-Aug-10 11:27 100 1 gusting 10 30.6
2020-Aug-10 11:22 107 2 gusting 12 30.0
2020-Aug-10 11:12 108 4 gusting 10 30.0
2020-Aug-10 11:07 114 5 gusting 10 30.0
2020-Aug-10 11:02 106 3 gusting 12 30.0
2020-Aug-10 10:57 095 3 gusting 11 30.0
2020-Aug-10 10:52 097 0 gusting 6 30.0
2020-Aug-10 10:47 042 1 gusting 10 30.0
2020-Aug-10 10:37 042 0 gusting 10 30.0
2020-Aug-10 10:27 069 0 gusting 5 30.0
2020-Aug-10 10:17 118 29.4
2020-Aug-10 10:12 103 2 gusting 10 30.0
2020-Aug-10 10:02 087 2 gusting 8 29.4
2020-Aug-10 09:57 123 0 gusting 8 28.9
2020-Aug-10 09:42 122 4 gusting 10 28.9
2020-Aug-10 09:37 055 1 gusting 6 28.9
2020-Aug-10 09:32 070 2 gusting 10 28.9
2020-Aug-10 09:27 066 1 gusting 6 28.3
2020-Aug-10 09:22 095 2 gusting 6 28.3
2020-Aug-10 09:12 062 2 gusting 10 27.8
2020-Aug-10 09:07 112 0 gusting 5 27.2
2020-Aug-10 08:57 117 1 gusting 10 27.2
2020-Aug-10 08:52 088 4 gusting 8 26.7
2020-Aug-10 08:47 015 26.1
2020-Aug-10 08:42 308 26.1
2020-Aug-10 08:37 308 26.1
2020-Aug-10 08:32 308 26.1
2020-Aug-10 08:27 308 2 gusting 5 26.1
2020-Aug-10 08:22 316 26.7
2020-Aug-10 08:17 325 26.1
2020-Aug-10 08:02 325 26.1
2020-Aug-10 07:57 325 0 gusting 4 25.6
2020-Aug-10 07:52 325 0 gusting 4 25.6
2020-Aug-10 07:47 325 25.6
2020-Aug-10 07:42 318 2 gusting 6 25.0
2020-Aug-10 07:37 325 2 gusting 6 25.0
2020-Aug-10 07:32 335 24.4
2020-Aug-10 07:22 335 0 gusting 4 24.4
2020-Aug-10 07:17 335 0 gusting 5 24.4
2020-Aug-10 07:12 330 24.4
2020-Aug-10 07:07 326 0 gusting 6 24.4
2020-Aug-10 07:02 325 1 gusting 6 24.4
2020-Aug-10 06:57 017 24.4
2020-Aug-10 06:52 035 24.4
2020-Aug-10 06:47 036 0 gusting 2 23.9
2020-Aug-10 06:42 040 23.9
2020-Aug-10 06:37 042 23.3
2020-Aug-10 06:22 039 0 gusting 2 22.8
2020-Aug-10 06:17 036 22.2
2020-Aug-10 06:12 031 22.2
2020-Aug-10 06:07 039 21.7
2020-Aug-10 06:02 051 21.7
2020-Aug-10 05:57 061 21.1
2020-Aug-10 05:52 067 0 gusting 4 21.1
2020-Aug-10 05:42 031 20.0
2020-Aug-10 05:37 028 20.0
2020-Aug-10 05:22 037 18.9
2020-Aug-10 05:17 030 18.9
2020-Aug-10 05:12 021 18.3
2020-Aug-10 05:07 016 18.3
2020-Aug-10 05:02 035 18.3
2020-Aug-10 04:57 033 18.3
2020-Aug-10 04:52 032 18.3
2020-Aug-10 04:47 031 18.3
2020-Aug-10 04:42 031 17.8
2020-Aug-10 04:37 066 17.8
2020-Aug-10 04:27 065 17.2
2020-Aug-10 04:22 065 16.7
2020-Aug-10 04:17 065 16.7
2020-Aug-10 04:12 065 16.7
2020-Aug-10 04:07 065 16.7
2020-Aug-10 04:02 065 17.2
2020-Aug-10 03:57 065 17.2
2020-Aug-10 03:47 065 17.2
2020-Aug-10 03:42 065 17.2
2020-Aug-10 03:37 065 17.2
2020-Aug-10 03:32 065 17.2
2020-Aug-10 03:27 065 17.2
2020-Aug-10 03:22 065 17.2
2020-Aug-10 03:17 065 17.2
2020-Aug-10 02:52 065 17.2
2020-Aug-10 02:37 065 17.2
2020-Aug-10 02:27 065 17.2
2020-Aug-10 02:22 065 17.2
2020-Aug-10 02:17 065 17.2
2020-Aug-10 02:07 066 17.8
2020-Aug-10 02:02 066 17.8
2020-Aug-10 01:57 064 17.8
2020-Aug-10 01:47 064 17.8
2020-Aug-10 01:42 064 17.8
2020-Aug-10 01:37 064 17.8
2020-Aug-10 01:32 064 17.8
2020-Aug-10 01:27 064 17.8
2020-Aug-10 01:22 064 18.3
2020-Aug-10 01:02 064 18.3
2020-Aug-10 00:52 064 17.8
2020-Aug-10 00:47 064 17.8
2020-Aug-10 00:42 064 17.8
2020-Aug-10 00:32 074 17.8
2020-Aug-10 00:27 081 17.8
2020-Aug-10 00:17 086 18.3
2020-Aug-10 00:07 086 18.3
2020-Aug-10 00:02 086 18.3
2020-Aug-09 23:57 086 18.3
2020-Aug-09 23:52 086 18.3
2020-Aug-09 23:47 086 18.3
2020-Aug-09 23:37 086 18.3
2020-Aug-09 23:22 089 18.3
2020-Aug-09 23:17 091 18.3
2020-Aug-09 23:12 091 18.3
2020-Aug-09 23:02 091 18.3
2020-Aug-09 22:57 091 18.3
2020-Aug-09 22:52 020 18.3
2020-Aug-09 22:47 009 18.3
2020-Aug-09 22:42 009 18.9
2020-Aug-09 22:37 004 18.9
2020-Aug-09 22:32 004 18.9
2020-Aug-09 22:27 004 18.9
2020-Aug-09 22:17 004 18.9
2020-Aug-09 22:07 004 18.9
2020-Aug-09 21:37 004 19.4
2020-Aug-09 21:32 004 19.4
2020-Aug-09 21:22 004 19.4
2020-Aug-09 21:17 004 19.4
2020-Aug-09 21:07 004 20.0
2020-Aug-09 20:57 004 20.0
2020-Aug-09 20:52 004 20.0
2020-Aug-09 20:47 004 20.6
2020-Aug-09 20:42 004 20.6
2020-Aug-09 20:27 004 20.6
2020-Aug-09 20:22 004 20.6
2020-Aug-09 20:17 003 20.6
2020-Aug-09 20:02 008 20.6
2020-Aug-09 19:57 354 20.6
2020-Aug-09 19:52 335 20.6
2020-Aug-09 19:47 335 20.6
2020-Aug-09 19:37 335 21.1
2020-Aug-09 19:32 335 21.1
2020-Aug-09 19:27 335 21.7
2020-Aug-09 19:22 335 21.7
2020-Aug-09 19:17 335 21.7
2020-Aug-09 19:12 335 22.2
2020-Aug-09 19:02 335 22.8
2020-Aug-09 18:52 330 22.8
2020-Aug-09 18:27 335 23.9
2020-Aug-09 18:22 335 23.9
2020-Aug-09 18:07 325 24.4
2020-Aug-09 18:02 325 24.4
2020-Aug-09 17:52 341 24.4
2020-Aug-09 17:42 354 2 gusting 7 25.0
2020-Aug-09 17:32 353 4 gusting 7 25.0
2020-Aug-09 17:27 351 2 gusting 10 25.6
2020-Aug-09 17:22 337 0 gusting 6 25.6
2020-Aug-09 17:17 345 0 gusting 8 25.6
2020-Aug-09 17:12 344 0 gusting 8 25.6
2020-Aug-09 17:07 343 0 gusting 8 25.6
2020-Aug-09 17:02 337 0 gusting 8 25.6
2020-Aug-09 16:57 339 2 gusting 8 26.1
2020-Aug-09 16:52 357 1 gusting 10 26.1
2020-Aug-09 16:47 345 0 gusting 7 26.1
2020-Aug-09 16:42 344 1 gusting 8 26.1
2020-Aug-09 16:32 342 2 gusting 7 26.1
2020-Aug-09 16:27 343 0 gusting 10 26.1
2020-Aug-09 16:22 346 3 gusting 12 26.1
2020-Aug-09 16:12 341 6 gusting 11 26.7
2020-Aug-09 16:07 333 4 gusting 11 27.2
2020-Aug-09 15:57 335 5 gusting 10 27.2
2020-Aug-09 15:52 348 2 gusting 10 27.2
2020-Aug-09 15:37 333 4 gusting 13 26.7
2020-Aug-09 15:32 345 0 gusting 10 26.7
2020-Aug-09 15:22 344 7 gusting 13 27.2
2020-Aug-09 15:17 342 6 gusting 13 27.2
2020-Aug-09 15:02 335 4 gusting 15 27.2
2020-Aug-09 14:52 335 5 gusting 14 26.7
2020-Aug-09 14:47 328 2 gusting 15 26.7
2020-Aug-09 14:42 331 9 gusting 13 26.7
2020-Aug-09 14:37 340 6 gusting 15 26.7
2020-Aug-09 14:32 346 6 gusting 14 26.7
2020-Aug-09 14:27 332 6 gusting 14 26.7
2020-Aug-09 14:22 338 7 gusting 14 27.2
2020-Aug-09 14:17 341 6 gusting 15 26.7
2020-Aug-09 14:12 331 6 gusting 17 26.7
2020-Aug-09 14:02 342 6 gusting 13 27.2
2020-Aug-09 13:57 338 5 gusting 15 27.2
2020-Aug-09 13:52 342 8 gusting 14 27.2
2020-Aug-09 13:47 338 7 gusting 14 27.2
2020-Aug-09 13:42 329 9 gusting 17 27.8
2020-Aug-09 13:37 342 6 gusting 14 27.2
2020-Aug-09 13:32 352 8 gusting 13 27.2
2020-Aug-09 13:07 343 10 gusting 14 27.2
2020-Aug-09 13:02 345 9 gusting 13 27.2
2020-Aug-09 12:52 335 6 gusting 14 27.2
2020-Aug-09 12:47 334 8 gusting 14 27.2
2020-Aug-09 12:42 343 9 gusting 13 27.2
2020-Aug-09 12:37 340 8 gusting 13 27.2
2020-Aug-09 12:32 332 8 gusting 13 27.2
2020-Aug-09 12:27 348 5 gusting 13 27.2
2020-Aug-09 12:22 342 11 gusting 17 27.8
2020-Aug-09 12:17 338 4 gusting 13 27.8
2020-Aug-09 11:52 348 4 gusting 12 27.8
2020-Aug-09 11:47 331 6 gusting 12 27.8
2020-Aug-09 11:42 320 8 gusting 13 27.8
2020-Aug-09 11:27 348 9 gusting 13 27.2
2020-Aug-09 11:22 349 8 gusting 14 27.2
2020-Aug-09 11:17 345 9 gusting 13 27.2
2020-Aug-09 11:12 337 5 gusting 13 27.2
2020-Aug-09 11:07 334 2 gusting 11 26.7
2020-Aug-09 11:02 345 6 gusting 11 26.7
2020-Aug-09 10:52 331 1 gusting 8 26.1
2020-Aug-09 10:47 344 7 gusting 10 26.1
2020-Aug-09 10:42 342 6 gusting 10 26.1
2020-Aug-09 10:37 344 6 gusting 10 26.7
2020-Aug-09 10:32 344 0 gusting 7 26.7
2020-Aug-09 10:27 350 0 gusting 11 26.7
2020-Aug-09 10:17 333 6 gusting 11 26.7
2020-Aug-09 10:12 345 7 gusting 11 26.7
2020-Aug-09 10:07 333 6 gusting 10 26.7
2020-Aug-09 10:02 349 5 gusting 11 26.7
2020-Aug-09 09:57 332 6 gusting 12 26.1
2020-Aug-09 09:47 359 6 gusting 11 26.1
2020-Aug-09 09:37 340 4 gusting 10 26.1
2020-Aug-09 09:32 330 1 gusting 10 25.6
2020-Aug-09 09:27 001 6 gusting 11 25.6
2020-Aug-09 09:22 354 6 gusting 10 25.0
2020-Aug-09 09:17 355 6 gusting 10 25.6
2020-Aug-09 09:07 353 4 gusting 8 25.6
2020-Aug-09 08:57 337 1 gusting 8 25.6
2020-Aug-09 08:52 333 1 gusting 10 25.0
2020-Aug-09 08:47 359 2 gusting 8 25.6
2020-Aug-09 08:27 316 0 gusting 6 26.1
2020-Aug-09 08:22 334 1 gusting 6 25.6
2020-Aug-09 08:12 347 0 gusting 5 25.6
2020-Aug-09 08:07 320 3 gusting 7 25.0
2020-Aug-09 08:02 335 25.0
2020-Aug-09 07:52 329 1 gusting 6 24.4
2020-Aug-09 07:47 328 0 gusting 6 24.4
2020-Aug-09 07:32 340 0 gusting 7 23.9
2020-Aug-09 07:17 338 1 gusting 8 23.3
2020-Aug-09 07:02 350 0 gusting 10 23.3
2020-Aug-09 06:47 22.8
2020-Aug-09 06:42 350 22.8
2020-Aug-09 06:37 341 0 gusting 6 22.2
2020-Aug-09 06:32 334 2 gusting 8 22.2
2020-Aug-09 06:12 333 21.7
2020-Aug-09 06:07 335 21.1
2020-Aug-09 06:02 339 20.6
2020-Aug-09 05:57 325 20.0
2020-Aug-09 05:52 325 19.4
2020-Aug-09 05:47 318 18.9
2020-Aug-09 05:42 316 18.3
2020-Aug-09 05:37 311 17.8
2020-Aug-09 05:32 308 17.2
2020-Aug-09 05:27 302 16.7
2020-Aug-09 05:22 297 16.7
2020-Aug-09 05:17 295 16.1
2020-Aug-09 05:07 283 0 gusting 1 15.6
2020-Aug-09 05:02 312 0 gusting 1 15.6
2020-Aug-09 04:52 311 15.6
2020-Aug-09 04:47 311 15.6
2020-Aug-09 04:42 312 15.0
2020-Aug-09 04:37 313 15.0
2020-Aug-09 04:32 337 14.4
2020-Aug-09 04:27 349 14.4
2020-Aug-09 04:17 349 13.9
2020-Aug-09 04:12 349 13.9
2020-Aug-09 03:57 349 13.9
2020-Aug-09 03:47 349 13.9
2020-Aug-09 03:42 349 13.9
2020-Aug-09 03:37 349 13.9
2020-Aug-09 03:32 349 13.9
2020-Aug-09 03:27 349 13.9
2020-Aug-09 03:22 349 13.9
2020-Aug-09 03:17 349 13.9
2020-Aug-09 03:12 349 13.9
2020-Aug-09 03:07 349 13.9
2020-Aug-09 03:02 349 13.9
2020-Aug-09 02:57 349 13.9
2020-Aug-09 02:37 349 13.9
2020-Aug-09 02:27 349 14.4
2020-Aug-09 02:22 349 14.4
2020-Aug-09 02:12 349 14.4
2020-Aug-09 02:02 349 14.4
2020-Aug-09 01:52 349 14.4
2020-Aug-09 01:47 349 14.4
2020-Aug-09 01:42 349 14.4
2020-Aug-09 01:27 349 14.4
2020-Aug-09 01:22 349 14.4
2020-Aug-09 01:12 349 14.4
2020-Aug-09 01:07 349 14.4
2020-Aug-09 01:02 349 14.4
2020-Aug-09 00:52 349 15.0
2020-Aug-09 00:42 349 15.0
2020-Aug-09 00:37 349 15.0
2020-Aug-09 00:22 349 15.6
2020-Aug-09 00:12 349 15.6
2020-Aug-09 00:02 349 15.6
2020-Aug-08 23:52 349 15.6
2020-Aug-08 23:47 349 15.6
2020-Aug-08 23:42 349 15.6
2020-Aug-08 23:37 349 15.6
2020-Aug-08 23:32 349 15.6
2020-Aug-08 23:27 349 16.1
2020-Aug-08 23:22 349 16.1
2020-Aug-08 23:12 349 16.1
2020-Aug-08 23:07 349 16.7
2020-Aug-08 22:57 349 16.7
2020-Aug-08 22:52 349 16.7
2020-Aug-08 22:47 349 16.7
2020-Aug-08 22:42 349 16.7
2020-Aug-08 22:37 349 16.7
2020-Aug-08 22:32 349 16.7
2020-Aug-08 22:27 349 17.2
2020-Aug-08 22:22 349 17.2
2020-Aug-08 22:17 349 17.2
2020-Aug-08 22:07 349 17.2
2020-Aug-08 22:02 349 17.2
2020-Aug-08 21:57 349 17.8
2020-Aug-08 21:47 349 17.8
2020-Aug-08 21:42 349 17.8
2020-Aug-08 21:37 349 18.3
2020-Aug-08 21:32 349 18.3
2020-Aug-08 21:27 349 18.3
2020-Aug-08 21:22 349 18.3
2020-Aug-08 21:12 349 18.9
2020-Aug-08 21:07 349 18.9
2020-Aug-08 21:02 349 19.4
2020-Aug-08 20:57 349 19.4
2020-Aug-08 20:52 349 19.4
2020-Aug-08 20:47 349 19.4
2020-Aug-08 20:42 349 19.4
2020-Aug-08 20:32 349 19.4
2020-Aug-08 20:27 349 19.4
2020-Aug-08 20:12 349 20.0
2020-Aug-08 20:02 349 20.0
2020-Aug-08 19:57 349 20.0
2020-Aug-08 19:52 349 20.0
2020-Aug-08 19:47 349 20.0
2020-Aug-08 19:42 349 20.0
2020-Aug-08 19:37 349 20.6
2020-Aug-08 19:32 349 20.6
2020-Aug-08 19:22 349 20.6
2020-Aug-08 19:17 349 21.1
2020-Aug-08 19:12 349 21.1
2020-Aug-08 19:07 349 21.1
2020-Aug-08 19:02 349 21.7